sensor_id;sensor_type;location;lat;lon;timestamp;pressure;altitude;pressure_sealevel;temperature;humidity
13765;BME280;6953;48.810;9.204;2024-02-15T00:02:24;99138.97;;;13.38;93.79
13765;BME280;6953;48.810;9.204;2024-02-15T00:04:50;98965.38;;;12.43;93.76
13765;BME280;6953;48.810;9.204;2024-02-15T00:07:15;99212.03;;;13.96;93.32
13765;BME280;6953;48.810;9.204;2024-02-15T00:09:40;99215.31;;;14.00;93.51
13765;BME280;6953;48.810;9.204;2024-02-15T00:12:06;99212.63;;;14.01;93.91
13765;BME280;6953;48.810;9.204;2024-02-15T00:14:31;99170.22;;;13.75;93.71
13765;BME280;6953;48.810;9.204;2024-02-15T00:16:57;98954.38;;;12.51;93.79
13765;BME280;6953;48.810;9.204;2024-02-15T00:19:22;99222.78;;;14.07;93.77
13765;BME280;6953;48.810;9.204;2024-02-15T00:21:48;99208.09;;;14.03;93.70
13765;BME280;6953;48.810;9.204;2024-02-15T00:24:13;99027.78;;;13.02;93.44
13765;BME280;6953;48.810;9.204;2024-02-15T00:26:40;99228.63;;;14.14;93.72
13765;BME280;6953;48.810;9.204;2024-02-15T00:29:08;99224.19;;;14.14;93.30
13765;BME280;6953;48.810;9.204;2024-02-15T00:31:33;98992.75;;;12.85;93.31
13765;BME280;6953;48.810;9.204;2024-02-15T00:34:00;99033.81;;;13.04;93.28
13765;BME280;6953;48.810;9.204;2024-02-15T00:36:27;98916.41;;;12.40;93.22
13765;BME280;6953;48.810;9.204;2024-02-15T00:38:53;99186.00;;;13.90;93.49
13765;BME280;6953;48.810;9.204;2024-02-15T00:41:18;99212.06;;;14.10;93.68
13765;BME280;6953;48.810;9.204;2024-02-15T00:43:45;99206.25;;;13.90;93.86
13765;BME280;6953;48.810;9.204;2024-02-15T00:46:10;99207.94;;;14.06;93.83
13765;BME280;6953;48.810;9.204;2024-02-15T00:48:35;98942.03;;;12.52;93.91
13765;BME280;6953;48.810;9.204;2024-02-15T00:51:01;99161.00;;;13.82;94.31
13765;BME280;6953;48.810;9.204;2024-02-15T00:53:26;99205.28;;;14.06;94.06
13765;BME280;6953;48.810;9.204;2024-02-15T00:55:51;99192.75;;;13.80;94.42
13765;BME280;6953;48.810;9.204;2024-02-15T00:58:17;99202.91;;;14.02;94.65
13765;BME280;6953;48.810;9.204;2024-02-15T01:00:42;99078.91;;;13.29;94.60
13765;BME280;6953;48.810;9.204;2024-02-15T01:03:07;99126.66;;;13.54;95.23
13765;BME280;6953;48.810;9.204;2024-02-15T01:05:33;99134.09;;;13.61;94.73
13765;BME280;6953;48.810;9.204;2024-02-15T01:07:59;99103.53;;;13.44;94.85
13765;BME280;6953;48.810;9.204;2024-02-15T01:10:25;99047.91;;;13.19;94.57
13765;BME280;6953;48.810;9.204;2024-02-15T01:12:52;99218.50;;;14.06;94.46
13765;BME280;6953;48.810;9.204;2024-02-15T01:15:17;99226.31;;;14.08;94.71
13765;BME280;6953;48.810;9.204;2024-02-15T01:17:44;99168.88;;;13.97;94.28
13765;BME280;6953;48.810;9.204;2024-02-15T01:20:10;99205.09;;;14.09;94.04
13765;BME280;6953;48.810;9.204;2024-02-15T01:22:36;98927.84;;;12.54;94.15
13765;BME280;6953;48.810;9.204;2024-02-15T01:25:01;99185.84;;;14.07;94.55
13765;BME280;6953;48.810;9.204;2024-02-15T01:27:27;99077.41;;;13.39;94.05
13765;BME280;6953;48.810;9.204;2024-02-15T01:29:58;99179.34;;;13.99;94.19
13765;BME280;6953;48.810;9.204;2024-02-15T01:32:23;99193.91;;;13.90;94.05
13765;BME280;6953;48.810;9.204;2024-02-15T01:34:50;99139.88;;;13.68;94.39
13765;BME280;6953;48.810;9.204;2024-02-15T01:37:19;99184.22;;;13.91;94.58
13765;BME280;6953;48.810;9.204;2024-02-15T01:39:45;99195.22;;;13.83;94.81
13765;BME280;6953;48.810;9.204;2024-02-15T01:42:10;99091.81;;;13.18;95.11
13765;BME280;6953;48.810;9.204;2024-02-15T01:44:36;99188.16;;;13.68;95.13
13765;BME280;6953;48.810;9.204;2024-02-15T01:47:02;98906.59;;;11.97;95.20
13765;BME280;6953;48.810;9.204;2024-02-15T01:49:28;99178.06;;;13.46;95.77
13765;BME280;6953;48.810;9.204;2024-02-15T01:51:55;99158.97;;;13.27;96.32
13765;BME280;6953;48.810;9.204;2024-02-15T01:54:22;99206.84;;;13.35;96.44
13765;BME280;6953;48.810;9.204;2024-02-15T01:56:48;99175.72;;;13.10;96.68
13765;BME280;6953;48.810;9.204;2024-02-15T01:59:15;98940.28;;;11.58;97.02
13765;BME280;6953;48.810;9.204;2024-02-15T02:01:41;99178.91;;;12.84;97.96
13765;BME280;6953;48.810;9.204;2024-02-15T02:04:07;99195.59;;;12.68;98.69
13765;BME280;6953;48.810;9.204;2024-02-15T02:06:33;99177.63;;;12.43;99.12
13765;BME280;6953;48.810;9.204;2024-02-15T02:08:58;99194.44;;;12.41;99.79
13765;BME280;6953;48.810;9.204;2024-02-15T02:11:24;99211.06;;;12.42;100.00
13765;BME280;6953;48.810;9.204;2024-02-15T02:13:50;99029.03;;;11.18;99.96
13765;BME280;6953;48.810;9.204;2024-02-15T02:16:29;99187.63;;;12.37;100.00
13765;BME280;6953;48.810;9.204;2024-02-15T02:18:57;99182.19;;;12.40;100.00
13765;BME280;6953;48.810;9.204;2024-02-15T02:21:23;99052.00;;;11.65;100.00
13765;BME280;6953;48.810;9.204;2024-02-15T02:23:53;99137.03;;;12.15;100.00
13765;BME280;6953;48.810;9.204;2024-02-15T02:26:22;99211.81;;;12.43;100.00
13765;BME280;6953;48.810;9.204;2024-02-15T02:28:48;98953.53;;;10.89;100.00
13765;BME280;6953;48.810;9.204;2024-02-15T02:31:13;99155.28;;;11.84;100.00
13765;BME280;6953;48.810;9.204;2024-02-15T02:33:40;99190.97;;;12.07;100.00
13765;BME280;6953;48.810;9.204;2024-02-15T02:36:06;99193.59;;;12.07;100.00
13765;BME280;6953;48.810;9.204;2024-02-15T02:38:37;99188.19;;;12.10;100.00
13765;BME280;6953;48.810;9.204;2024-02-15T02:41:05;99164.81;;;12.04;100.00
13765;BME280;6953;48.810;9.204;2024-02-15T02:43:31;99187.69;;;12.19;100.00
13765;BME280;6953;48.810;9.204;2024-02-15T02:45:56;99186.53;;;12.07;100.00
13765;BME280;6953;48.810;9.204;2024-02-15T02:48:21;98982.59;;;11.02;100.00
13765;BME280;6953;48.810;9.204;2024-02-15T02:50:50;99097.63;;;11.81;100.00
13765;BME280;6953;48.810;9.204;2024-02-15T02:53:15;99186.06;;;12.33;100.00
13765;BME280;6953;48.810;9.204;2024-02-15T02:55:41;99087.34;;;11.77;100.00
13765;BME280;6953;48.810;9.204;2024-02-15T02:58:06;99188.59;;;12.35;100.00
13765;BME280;6953;48.810;9.204;2024-02-15T03:00:33;99025.56;;;11.35;100.00
13765;BME280;6953;48.810;9.204;2024-02-15T03:02:58;99207.41;;;12.27;100.00
13765;BME280;6953;48.810;9.204;2024-02-15T03:05:25;99159.94;;;11.96;100.00
13765;BME280;6953;48.810;9.204;2024-02-15T03:07:50;99174.81;;;11.80;100.00
13765;BME280;6953;48.810;9.204;2024-02-15T03:10:17;99180.75;;;11.84;100.00
13765;BME280;6953;48.810;9.204;2024-02-15T03:12:43;99143.31;;;11.62;100.00
13765;BME280;6953;48.810;9.204;2024-02-15T03:15:12;99201.63;;;11.87;100.00
13765;BME280;6953;48.810;9.204;2024-02-15T03:17:42;99189.19;;;11.90;100.00
13765;BME280;6953;48.810;9.204;2024-02-15T03:20:08;99211.06;;;11.91;100.00
13765;BME280;6953;48.810;9.204;2024-02-15T03:22:45;99190.72;;;11.77;100.00
13765;BME280;6953;48.810;9.204;2024-02-15T03:25:10;99143.47;;;11.59;100.00
13765;BME280;6953;48.810;9.204;2024-02-15T03:27:36;99179.06;;;11.83;100.00
13765;BME280;6953;48.810;9.204;2024-02-15T03:30:03;99169.22;;;11.69;100.00
13765;BME280;6953;48.810;9.204;2024-02-15T03:32:29;98913.00;;;10.07;100.00
13765;BME280;6953;48.810;9.204;2024-02-15T03:34:55;99105.50;;;11.12;100.00
13765;BME280;6953;48.810;9.204;2024-02-15T03:37:20;99189.28;;;11.53;100.00
13765;BME280;6953;48.810;9.204;2024-02-15T03:39:46;99206.19;;;11.48;100.00
13765;BME280;6953;48.810;9.204;2024-02-15T03:42:12;99166.56;;;11.34;100.00
13765;BME280;6953;48.810;9.204;2024-02-15T03:44:37;98915.88;;;9.83;100.00
13765;BME280;6953;48.810;9.204;2024-02-15T03:47:04;99207.06;;;11.30;100.00
13765;BME280;6953;48.810;9.204;2024-02-15T03:49:30;99155.56;;;11.09;100.00
13765;BME280;6953;48.810;9.204;2024-02-15T03:51:57;99189.78;;;11.25;100.00
13765;BME280;6953;48.810;9.204;2024-02-15T03:54:25;98936.13;;;9.79;100.00
13765;BME280;6953;48.810;9.204;2024-02-15T03:56:50;98933.91;;;9.89;100.00
13765;BME280;6953;48.810;9.204;2024-02-15T03:59:20;99192.19;;;11.47;100.00
13765;BME280;6953;48.810;9.204;2024-02-15T04:01:51;99201.50;;;11.54;100.00
13765;BME280;6953;48.810;9.204;2024-02-15T04:04:17;99170.38;;;11.64;100.00
13765;BME280;6953;48.810;9.204;2024-02-15T04:06:42;99191.41;;;11.81;100.00
13765;BME280;6953;48.810;9.204;2024-02-15T04:09:08;99194.28;;;11.93;100.00
13765;BME280;6953;48.810;9.204;2024-02-15T04:11:33;99207.69;;;12.06;100.00
13765;BME280;6953;48.810;9.204;2024-02-15T04:13:59;99172.63;;;11.88;100.00
13765;BME280;6953;48.810;9.204;2024-02-15T04:16:24;99127.25;;;11.85;100.00
13765;BME280;6953;48.810;9.204;2024-02-15T04:18:50;99200.78;;;12.37;100.00
13765;BME280;6953;48.810;9.204;2024-02-15T04:21:16;99119.34;;;12.02;100.00
13765;BME280;6953;48.810;9.204;2024-02-15T04:23:45;99178.28;;;12.47;100.00
13765;BME280;6953;48.810;9.204;2024-02-15T04:26:10;99193.22;;;12.63;100.00
13765;BME280;6953;48.810;9.204;2024-02-15T04:28:38;99219.22;;;12.69;100.00
13765;BME280;6953;48.810;9.204;2024-02-15T04:31:04;99193.56;;;12.73;100.00
13765;BME280;6953;48.810;9.204;2024-02-15T04:33:30;99088.59;;;12.19;99.89
13765;BME280;6953;48.810;9.204;2024-02-15T04:35:55;99187.88;;;12.80;99.62
13765;BME280;6953;48.810;9.204;2024-02-15T04:38:21;99170.63;;;12.75;99.20
13765;BME280;6953;48.810;9.204;2024-02-15T04:40:46;99179.06;;;12.81;99.02
13765;BME280;6953;48.810;9.204;2024-02-15T04:43:12;99190.91;;;12.90;98.78
13765;BME280;6953;48.810;9.204;2024-02-15T04:45:40;98951.16;;;11.51;98.53
13765;BME280;6953;48.810;9.204;2024-02-15T04:48:06;98900.88;;;11.25;98.03
13765;BME280;6953;48.810;9.204;2024-02-15T04:50:32;99186.25;;;12.95;98.37
13765;BME280;6953;48.810;9.204;2024-02-15T04:52:57;98952.66;;;11.56;97.80
13765;BME280;6953;48.810;9.204;2024-02-15T04:55:23;99193.28;;;12.94;97.77
13765;BME280;6953;48.810;9.204;2024-02-15T04:57:49;99104.44;;;12.50;97.82
13765;BME280;6953;48.810;9.204;2024-02-15T05:00:15;98991.53;;;11.82;97.76
13765;BME280;6953;48.810;9.204;2024-02-15T05:02:41;99174.00;;;12.94;97.37
13765;BME280;6953;48.810;9.204;2024-02-15T05:05:09;98934.31;;;11.55;97.48
13765;BME280;6953;48.810;9.204;2024-02-15T05:07:35;99048.63;;;12.28;97.21
13765;BME280;6953;48.810;9.204;2024-02-15T05:10:03;99132.19;;;12.72;97.12
13765;BME280;6953;48.810;9.204;2024-02-15T05:12:31;99178.44;;;12.93;97.35
13765;BME280;6953;48.810;9.204;2024-02-15T05:14:58;99174.22;;;12.89;97.57
13765;BME280;6953;48.810;9.204;2024-02-15T05:17:23;99009.56;;;11.90;97.46
13765;BME280;6953;48.810;9.204;2024-02-15T05:19:49;99205.78;;;12.91;97.26
13765;BME280;6953;48.810;9.204;2024-02-15T05:22:15;99102.22;;;12.43;97.47
13765;BME280;6953;48.810;9.204;2024-02-15T05:24:40;99142.84;;;12.54;96.92
13765;BME280;6953;48.810;9.204;2024-02-15T05:27:05;99171.59;;;12.89;97.39
13765;BME280;6953;48.810;9.204;2024-02-15T05:29:31;99075.81;;;12.44;96.79
13765;BME280;6953;48.810;9.204;2024-02-15T05:32:01;99160.00;;;12.93;97.00
13765;BME280;6953;48.810;9.204;2024-02-15T05:34:26;99071.50;;;12.43;96.75
13765;BME280;6953;48.810;9.204;2024-02-15T05:36:52;99156.34;;;12.96;96.70
13765;BME280;6953;48.810;9.204;2024-02-15T05:39:17;99144.38;;;12.90;96.74
13765;BME280;6953;48.810;9.204;2024-02-15T05:41:45;98967.38;;;11.91;96.41
13765;BME280;6953;48.810;9.204;2024-02-15T05:44:11;99169.34;;;12.99;96.17
13765;BME280;6953;48.810;9.204;2024-02-15T05:46:36;99044.50;;;12.40;96.21
13765;BME280;6953;48.810;9.204;2024-02-15T05:49:05;99145.88;;;12.94;96.23
13765;BME280;6953;48.810;9.204;2024-02-15T05:51:30;98863.53;;;11.20;96.18
13765;BME280;6953;48.810;9.204;2024-02-15T05:53:59;99199.03;;;12.85;96.75
13765;BME280;6953;48.810;9.204;2024-02-15T05:56:24;99159.78;;;12.81;96.65
13765;BME280;6953;48.810;9.204;2024-02-15T05:58:51;99146.28;;;12.71;96.67
13765;BME280;6953;48.810;9.204;2024-02-15T06:01:16;99021.72;;;11.75;96.59
13765;BME280;6953;48.810;9.204;2024-02-15T06:03:41;98933.38;;;11.39;96.31
13765;BME280;6953;48.810;9.204;2024-02-15T06:06:09;98876.50;;;11.06;96.59
13765;BME280;6953;48.810;9.204;2024-02-15T06:08:37;99133.69;;;12.61;96.39
13765;BME280;6953;48.810;9.204;2024-02-15T06:11:03;98914.78;;;11.27;96.12
13765;BME280;6953;48.810;9.204;2024-02-15T06:13:29;99169.88;;;12.73;96.47
13765;BME280;6953;48.810;9.204;2024-02-15T06:15:54;99172.50;;;12.73;96.39
13765;BME280;6953;48.810;9.204;2024-02-15T06:18:20;99173.38;;;12.73;96.75
13765;BME280;6953;48.810;9.204;2024-02-15T06:20:57;99088.34;;;12.24;96.40
13765;BME280;6953;48.810;9.204;2024-02-15T06:23:23;99165.69;;;12.69;96.69
13765;BME280;6953;48.810;9.204;2024-02-15T06:25:50;99169.25;;;12.68;96.41
13765;BME280;6953;48.810;9.204;2024-02-15T06:28:18;98926.31;;;11.24;96.43
13765;BME280;6953;48.810;9.204;2024-02-15T06:31:02;99147.63;;;12.46;96.74
13765;BME280;6953;48.810;9.204;2024-02-15T06:33:45;99030.84;;;11.68;97.34
13765;BME280;6953;48.810;9.204;2024-02-15T06:36:30;98860.56;;;10.59;97.34
13765;BME280;6953;48.810;9.204;2024-02-15T06:39:13;99090.72;;;11.96;97.83
13765;BME280;6953;48.810;9.204;2024-02-15T06:41:57;99156.66;;;12.42;97.21
13765;BME280;6953;48.810;9.204;2024-02-15T06:44:23;99160.13;;;12.43;97.36
13765;BME280;6953;48.810;9.204;2024-02-15T06:46:49;99193.56;;;12.41;97.19
13765;BME280;6953;48.810;9.204;2024-02-15T06:49:15;99174.16;;;12.43;97.39
13765;BME280;6953;48.810;9.204;2024-02-15T06:51:41;99140.50;;;12.33;97.09
13765;BME280;6953;48.810;9.204;2024-02-15T06:54:07;99172.63;;;12.54;96.77
13765;BME280;6953;48.810;9.204;2024-02-15T06:56:36;99050.34;;;11.97;96.21
13765;BME280;6953;48.810;9.204;2024-02-15T06:59:02;99168.50;;;12.66;96.03
13765;BME280;6953;48.810;9.204;2024-02-15T07:01:28;99160.44;;;12.69;95.96
13765;BME280;6953;48.810;9.204;2024-02-15T07:03:55;99163.00;;;12.70;95.84
13765;BME280;6953;48.810;9.204;2024-02-15T07:06:21;99142.72;;;12.55;95.56
13765;BME280;6953;48.810;9.204;2024-02-15T07:08:47;99167.25;;;12.73;95.45
13765;BME280;6953;48.810;9.204;2024-02-15T07:11:13;99140.03;;;12.57;95.42
13765;BME280;6953;48.810;9.204;2024-02-15T07:13:38;99092.28;;;12.32;95.25
13765;BME280;6953;48.810;9.204;2024-02-15T07:16:08;99153.91;;;12.76;94.83
13765;BME280;6953;48.810;9.204;2024-02-15T07:18:33;99136.72;;;12.69;93.99
13765;BME280;6953;48.810;9.204;2024-02-15T07:20:58;99143.81;;;12.84;93.66
13765;BME280;6953;48.810;9.204;2024-02-15T07:23:26;99212.69;;;13.09;93.40
13765;BME280;6953;48.810;9.204;2024-02-15T07:25:51;99178.94;;;13.15;92.49
13765;BME280;6953;48.810;9.204;2024-02-15T07:28:19;98927.50;;;11.83;92.62
13765;BME280;6953;48.810;9.204;2024-02-15T07:30:44;99158.97;;;13.27;92.43
13765;BME280;6953;48.810;9.204;2024-02-15T07:33:11;99156.84;;;13.33;91.95
13765;BME280;6953;48.810;9.204;2024-02-15T07:35:36;99181.91;;;13.40;91.71
13765;BME280;6953;48.810;9.204;2024-02-15T07:38:02;99158.63;;;13.48;91.45
13765;BME280;6953;48.810;9.204;2024-02-15T07:40:30;99151.97;;;13.56;90.51
13765;BME280;6953;48.810;9.204;2024-02-15T07:42:58;98938.13;;;12.43;90.20
13765;BME280;6953;48.810;9.204;2024-02-15T07:45:24;98953.91;;;12.59;89.58
13765;BME280;6953;48.810;9.204;2024-02-15T07:47:49;99148.41;;;13.57;89.32
13765;BME280;6953;48.810;9.204;2024-02-15T07:50:16;99135.66;;;13.79;88.61
13765;BME280;6953;48.810;9.204;2024-02-15T07:52:45;99163.13;;;13.91;88.17
13765;BME280;6953;48.810;9.204;2024-02-15T07:55:10;99140.31;;;13.90;87.29
13765;BME280;6953;48.810;9.204;2024-02-15T07:57:37;99164.50;;;14.12;87.19
13765;BME280;6953;48.810;9.204;2024-02-15T08:00:02;99140.44;;;14.32;86.40
13765;BME280;6953;48.810;9.204;2024-02-15T08:02:35;98973.81;;;13.52;85.02
13765;BME280;6953;48.810;9.204;2024-02-15T08:05:00;99152.03;;;14.57;84.75
13765;BME280;6953;48.810;9.204;2024-02-15T08:07:29;99061.06;;;14.35;83.92
13765;BME280;6953;48.810;9.204;2024-02-15T08:09:58;98887.19;;;13.47;82.95
13765;BME280;6953;48.810;9.204;2024-02-15T08:12:24;99115.59;;;14.90;82.71
13765;BME280;6953;48.810;9.204;2024-02-15T08:14:51;99091.34;;;14.83;82.84
13765;BME280;6953;48.810;9.204;2024-02-15T08:17:17;98867.06;;;13.59;82.18
13765;BME280;6953;48.810;9.204;2024-02-15T08:19:42;99018.78;;;14.49;81.37
13765;BME280;6953;48.810;9.204;2024-02-15T08:22:07;99127.53;;;15.09;81.66
13765;BME280;6953;48.810;9.204;2024-02-15T08:24:33;99082.44;;;14.98;81.29
13765;BME280;6953;48.810;9.204;2024-02-15T08:26:58;99026.16;;;14.84;79.75
13765;BME280;6953;48.810;9.204;2024-02-15T08:29:25;99053.34;;;15.12;79.49
13765;BME280;6953;48.810;9.204;2024-02-15T08:31:50;99039.25;;;15.26;78.94
13765;BME280;6953;48.810;9.204;2024-02-15T08:34:15;99136.47;;;16.00;78.04
13765;BME280;6953;48.810;9.204;2024-02-15T08:36:44;99109.63;;;16.43;76.35
13765;BME280;6953;48.810;9.204;2024-02-15T08:39:09;98882.75;;;15.33;75.23
13765;BME280;6953;48.810;9.204;2024-02-15T08:41:37;99090.69;;;16.85;74.22
13765;BME280;6953;48.810;9.204;2024-02-15T08:44:03;99077.44;;;16.85;73.16
13765;BME280;6953;48.810;9.204;2024-02-15T08:46:34;99090.28;;;16.91;71.83
13765;BME280;6953;48.810;9.204;2024-02-15T08:49:00;99084.19;;;17.01;71.34
13765;BME280;6953;48.810;9.204;2024-02-15T08:51:26;99079.78;;;17.13;70.47
13765;BME280;6953;48.810;9.204;2024-02-15T08:53:51;99063.22;;;16.98;70.28
13765;BME280;6953;48.810;9.204;2024-02-15T08:56:16;99113.94;;;17.17;70.31
13765;BME280;6953;48.810;9.204;2024-02-15T08:58:41;98899.47;;;16.19;69.42
13765;BME280;6953;48.810;9.204;2024-02-15T09:01:07;99023.22;;;17.01;69.45
13765;BME280;6953;48.810;9.204;2024-02-15T09:03:35;99073.06;;;17.32;68.99
13765;BME280;6953;48.810;9.204;2024-02-15T09:06:01;98924.69;;;16.61;68.08
13765;BME280;6953;48.810;9.204;2024-02-15T09:08:28;99066.66;;;17.92;65.81
13765;BME280;6953;48.810;9.204;2024-02-15T09:10:55;99078.59;;;18.43;63.67
13765;BME280;6953;48.810;9.204;2024-02-15T09:13:22;99098.72;;;19.33;61.48
13765;BME280;6953;48.810;9.204;2024-02-15T09:15:48;98693.44;;;18.42;54.36
13765;BME280;6953;48.810;9.204;2024-02-15T09:18:13;99055.09;;;21.84;49.09
13765;BME280;6953;48.810;9.204;2024-02-15T09:20:38;98927.94;;;21.91;46.06
13765;BME280;6953;48.810;9.204;2024-02-15T09:23:09;98951.69;;;23.46;39.99
13765;BME280;6953;48.810;9.204;2024-02-15T09:25:40;99084.69;;;25.26;37.33
13765;BME280;6953;48.810;9.204;2024-02-15T09:28:08;99088.28;;;25.50;36.85
13765;BME280;6953;48.810;9.204;2024-02-15T09:30:33;99101.97;;;25.89;34.69
13765;BME280;6953;48.810;9.204;2024-02-15T09:33:01;99020.63;;;26.03;34.38
13765;BME280;6953;48.810;9.204;2024-02-15T09:35:29;99118.59;;;27.80;31.38
13765;BME280;6953;48.810;9.204;2024-02-15T09:37:55;99106.81;;;28.63;29.20
13765;BME280;6953;48.810;9.204;2024-02-15T09:40:21;99032.16;;;29.34;28.02
13765;BME280;6953;48.810;9.204;2024-02-15T09:42:51;99107.88;;;30.68;26.95
13765;BME280;6953;48.810;9.204;2024-02-15T09:45:17;98814.28;;;29.04;26.28
13765;BME280;6953;48.810;9.204;2024-02-15T09:47:44;99110.88;;;30.79;26.57
13765;BME280;6953;48.810;9.204;2024-02-15T09:50:14;99106.00;;;30.95;26.19
13765;BME280;6953;48.810;9.204;2024-02-15T09:52:51;99113.66;;;32.13;24.79
13765;BME280;6953;48.810;9.204;2024-02-15T09:55:17;99090.06;;;32.33;24.16
13765;BME280;6953;48.810;9.204;2024-02-15T09:57:44;99095.41;;;33.23;23.57
13765;BME280;6953;48.810;9.204;2024-02-15T10:00:12;99034.56;;;33.55;22.28
13765;BME280;6953;48.810;9.204;2024-02-15T10:02:43;99100.53;;;33.57;22.57
13765;BME280;6953;48.810;9.204;2024-02-15T10:05:12;99110.50;;;33.26;22.91
13765;BME280;6953;48.810;9.204;2024-02-15T10:07:41;99121.56;;;33.37;22.27
13765;BME280;6953;48.810;9.204;2024-02-15T10:12:44;99062.00;;;33.67;22.02
13765;BME280;6953;48.810;9.204;2024-02-15T10:15:09;99128.25;;;35.09;20.45
13765;BME280;6953;48.810;9.204;2024-02-15T10:17:35;99112.91;;;35.68;20.17
13765;BME280;6953;48.810;9.204;2024-02-15T10:20:05;99114.44;;;35.93;19.16
13765;BME280;6953;48.810;9.204;2024-02-15T10:22:31;98943.44;;;34.55;20.42
13765;BME280;6953;48.810;9.204;2024-02-15T10:25:12;99065.34;;;35.22;19.50
13765;BME280;6953;48.810;9.204;2024-02-15T10:27:41;99032.84;;;34.29;20.21
13765;BME280;6953;48.810;9.204;2024-02-15T10:30:19;99080.41;;;34.64;20.99
13765;BME280;6953;48.810;9.204;2024-02-15T10:32:45;99068.84;;;34.86;20.24
13765;BME280;6953;48.810;9.204;2024-02-15T10:35:21;99079.53;;;35.12;20.08
13765;BME280;6953;48.810;9.204;2024-02-15T10:37:48;99078.13;;;35.75;19.50
13765;BME280;6953;48.810;9.204;2024-02-15T10:40:17;99060.50;;;36.30;18.88
13765;BME280;6953;48.810;9.204;2024-02-15T10:42:46;99079.34;;;36.49;18.42
13765;BME280;6953;48.810;9.204;2024-02-15T10:45:13;98918.19;;;34.84;18.86
13765;BME280;6953;48.810;9.204;2024-02-15T10:47:40;99031.97;;;35.37;18.97
13765;BME280;6953;48.810;9.204;2024-02-15T10:50:06;99019.72;;;35.99;17.73
13765;BME280;6953;48.810;9.204;2024-02-15T10:52:33;99080.25;;;37.57;17.13
13765;BME280;6953;48.810;9.204;2024-02-15T10:55:04;99078.97;;;38.16;16.17
13765;BME280;6953;48.810;9.204;2024-02-15T10:57:37;98955.88;;;36.57;16.82
13765;BME280;6953;48.810;9.204;2024-02-15T11:00:03;98947.38;;;35.90;17.49
13765;BME280;6953;48.810;9.204;2024-02-15T11:02:42;99067.16;;;35.93;17.59
13765;BME280;6953;48.810;9.204;2024-02-15T11:05:10;98990.88;;;35.15;18.00
13765;BME280;6953;48.810;9.204;2024-02-15T11:07:39;99007.06;;;35.27;18.34
13765;BME280;6953;48.810;9.204;2024-02-15T11:10:06;98892.41;;;35.27;17.78
13765;BME280;6953;48.810;9.204;2024-02-15T11:12:34;99006.44;;;36.77;16.82
13765;BME280;6953;48.810;9.204;2024-02-15T11:15:00;99031.28;;;37.10;17.05
13765;BME280;6953;48.810;9.204;2024-02-15T11:20:09;99049.72;;;36.80;16.90
13765;BME280;6953;48.810;9.204;2024-02-15T11:22:36;98991.69;;;36.44;16.97
13765;BME280;6953;48.810;9.204;2024-02-15T11:25:03;99028.38;;;37.40;16.76
13765;BME280;6953;48.810;9.204;2024-02-15T11:27:35;99005.03;;;37.65;16.65
13765;BME280;6953;48.810;9.204;2024-02-15T11:30:03;99028.78;;;37.59;16.22
13765;BME280;6953;48.810;9.204;2024-02-15T11:32:38;99017.91;;;38.37;16.31
13765;BME280;6953;48.810;9.204;2024-02-15T11:35:08;99033.16;;;38.98;15.57
13765;BME280;6953;48.810;9.204;2024-02-15T11:40:17;99022.94;;;39.53;15.21
13765;BME280;6953;48.810;9.204;2024-02-15T11:42:44;99030.91;;;39.33;15.22
13765;BME280;6953;48.810;9.204;2024-02-15T11:45:09;98860.53;;;37.88;16.09
13765;BME280;6953;48.810;9.204;2024-02-15T11:47:39;98953.88;;;37.98;16.00
13765;BME280;6953;48.810;9.204;2024-02-15T11:50:09;99008.59;;;36.75;17.25
13765;BME280;6953;48.810;9.204;2024-02-15T11:52:41;98951.28;;;35.53;18.17
13765;BME280;6953;48.810;9.204;2024-02-15T11:55:07;98992.91;;;35.55;18.51
13765;BME280;6953;48.810;9.204;2024-02-15T11:57:36;98981.69;;;34.49;19.17
13765;BME280;6953;48.810;9.204;2024-02-15T12:00:21;98959.41;;;33.17;20.58
13765;BME280;6953;48.810;9.204;2024-02-15T12:03:06;98895.28;;;32.14;21.55
13765;BME280;6953;48.810;9.204;2024-02-15T12:05:50;98936.22;;;31.99;22.01
13765;BME280;6953;48.810;9.204;2024-02-15T12:08:34;98960.00;;;32.62;21.45
13765;BME280;6953;48.810;9.204;2024-02-15T12:11:18;98943.78;;;33.99;20.42
13765;BME280;6953;48.810;9.204;2024-02-15T12:14:02;98952.94;;;35.07;19.31
13765;BME280;6953;48.810;9.204;2024-02-15T12:16:46;98960.16;;;35.66;18.50
13765;BME280;6953;48.810;9.204;2024-02-15T12:19:30;98764.81;;;33.81;19.03
13765;BME280;6953;48.810;9.204;2024-02-15T12:21:56;98940.63;;;34.26;19.83
13765;BME280;6953;48.810;9.204;2024-02-15T12:24:23;98918.28;;;34.60;19.41
13765;BME280;6953;48.810;9.204;2024-02-15T12:26:59;98924.03;;;33.79;20.06
13765;BME280;6953;48.810;9.204;2024-02-15T12:29:25;98919.97;;;32.89;21.18
13765;BME280;6953;48.810;9.204;2024-02-15T12:31:50;98901.53;;;32.08;22.05
13765;BME280;6953;48.810;9.204;2024-02-15T12:34:20;98914.28;;;31.62;22.93
13765;BME280;6953;48.810;9.204;2024-02-15T12:36:45;98904.81;;;30.66;23.75
13765;BME280;6953;48.810;9.204;2024-02-15T12:39:11;98872.59;;;30.10;24.71
13765;BME280;6953;48.810;9.204;2024-02-15T12:41:49;98862.34;;;29.51;25.50
13765;BME280;6953;48.810;9.204;2024-02-15T12:44:16;98844.59;;;29.21;26.07
13765;BME280;6953;48.810;9.204;2024-02-15T12:46:43;98857.28;;;29.41;25.85
13765;BME280;6953;48.810;9.204;2024-02-15T12:49:27;98766.97;;;28.23;26.77
13765;BME280;6953;48.810;9.204;2024-02-15T12:51:53;98835.81;;;28.13;27.55
13765;BME280;6953;48.810;9.204;2024-02-15T12:54:20;98838.91;;;27.58;28.22
13765;BME280;6953;48.810;9.204;2024-02-15T12:56:46;98831.69;;;26.92;29.35
13765;BME280;6953;48.810;9.204;2024-02-15T12:59:14;98702.78;;;25.45;30.13
13765;BME280;6953;48.810;9.204;2024-02-15T13:01:39;98796.03;;;25.36;31.06
13765;BME280;6953;48.810;9.204;2024-02-15T13:04:04;98804.22;;;25.11;32.21
13765;BME280;6953;48.810;9.204;2024-02-15T13:06:31;98795.00;;;24.66;32.94
13765;BME280;6953;48.810;9.204;2024-02-15T13:09:00;98564.09;;;22.97;33.63
13765;BME280;6953;48.810;9.204;2024-02-15T13:11:25;98706.47;;;23.59;34.36
13765;BME280;6953;48.810;9.204;2024-02-15T13:13:51;98732.75;;;23.56;34.86
13765;BME280;6953;48.810;9.204;2024-02-15T13:16:17;98674.22;;;23.02;35.35
13765;BME280;6953;48.810;9.204;2024-02-15T13:18:45;98780.31;;;23.54;35.81
13765;BME280;6953;48.810;9.204;2024-02-15T13:21:12;98785.34;;;23.57;36.13